sensor_id;sensor_type;location;lat;lon;timestamp;P1;durP1;ratioP1;P2;durP2;ratioP2
68178;SDS011;69812;42.632;23.440;2023-05-07T00:02:29;11.77;;;7.68;;
68178;SDS011;69812;42.632;23.440;2023-05-07T00:04:55;16.15;;;8.07;;
68178;SDS011;69812;42.632;23.440;2023-05-07T00:07:21;13.68;;;8.80;;
68178;SDS011;69812;42.632;23.440;2023-05-07T00:09:46;14.68;;;7.90;;
68178;SDS011;69812;42.632;23.440;2023-05-07T00:12:12;15.15;;;9.07;;
68178;SDS011;69812;42.632;23.440;2023-05-07T00:14:37;14.45;;;8.13;;
68178;SDS011;69812;42.632;23.440;2023-05-07T00:17:02;15.85;;;8.18;;
68178;SDS011;69812;42.632;23.440;2023-05-07T00:19:28;13.75;;;8.15;;
68178;SDS011;69812;42.632;23.440;2023-05-07T00:21:53;14.02;;;8.80;;
68178;SDS011;69812;42.632;23.440;2023-05-07T00:24:40;16.42;;;9.27;;
68178;SDS011;69812;42.632;23.440;2023-05-07T00:29:31;13.55;;;7.57;;
68178;SDS011;69812;42.632;23.440;2023-05-07T00:31:56;14.63;;;8.45;;
68178;SDS011;69812;42.632;23.440;2023-05-07T00:34:22;13.80;;;7.95;;
68178;SDS011;69812;42.632;23.440;2023-05-07T00:37:02;13.35;;;7.95;;
68178;SDS011;69812;42.632;23.440;2023-05-07T00:39:28;14.30;;;8.23;;
68178;SDS011;69812;42.632;23.440;2023-05-07T00:41:57;13.50;;;7.78;;
68178;SDS011;69812;42.632;23.440;2023-05-07T00:44:22;16.05;;;8.18;;
68178;SDS011;69812;42.632;23.440;2023-05-07T00:46:48;15.10;;;9.50;;
68178;SDS011;69812;42.632;23.440;2023-05-07T00:49:14;17.83;;;8.85;;
68178;SDS011;69812;42.632;23.440;2023-05-07T00:51:44;13.15;;;8.75;;
68178;SDS011;69812;42.632;23.440;2023-05-07T00:54:12;16.02;;;8.38;;
68178;SDS011;69812;42.632;23.440;2023-05-07T00:56:44;15.55;;;8.43;;
68178;SDS011;69812;42.632;23.440;2023-05-07T00:59:10;16.48;;;8.70;;
68178;SDS011;69812;42.632;23.440;2023-05-07T01:01:36;14.05;;;8.55;;
68178;SDS011;69812;42.632;23.440;2023-05-07T01:04:01;13.57;;;8.18;;
68178;SDS011;69812;42.632;23.440;2023-05-07T01:06:27;13.88;;;8.07;;
68178;SDS011;69812;42.632;23.440;2023-05-07T01:08:59;12.95;;;7.93;;
68178;SDS011;69812;42.632;23.440;2023-05-07T01:11:28;11.82;;;7.20;;
68178;SDS011;69812;42.632;23.440;2023-05-07T01:13:55;12.88;;;7.35;;
68178;SDS011;69812;42.632;23.440;2023-05-07T01:16:24;11.50;;;7.35;;
68178;SDS011;69812;42.632;23.440;2023-05-07T01:18:49;12.15;;;7.03;;
68178;SDS011;69812;42.632;23.440;2023-05-07T01:21:31;11.63;;;6.75;;
68178;SDS011;69812;42.632;23.440;2023-05-07T01:23:59;11.63;;;7.10;;
68178;SDS011;69812;42.632;23.440;2023-05-07T01:26:27;11.90;;;7.30;;
68178;SDS011;69812;42.632;23.440;2023-05-07T01:28:52;11.60;;;7.20;;
68178;SDS011;69812;42.632;23.440;2023-05-07T01:31:20;14.82;;;7.60;;
68178;SDS011;69812;42.632;23.440;2023-05-07T01:33:47;12.98;;;7.68;;
68178;SDS011;69812;42.632;23.440;2023-05-07T01:36:14;14.00;;;7.68;;
68178;SDS011;69812;42.632;23.440;2023-05-07T01:38:54;14.52;;;7.68;;
68178;SDS011;69812;42.632;23.440;2023-05-07T01:41:22;12.60;;;6.88;;
68178;SDS011;69812;42.632;23.440;2023-05-07T01:43:48;14.35;;;7.90;;
68178;SDS011;69812;42.632;23.440;2023-05-07T01:46:18;13.93;;;7.93;;
68178;SDS011;69812;42.632;23.440;2023-05-07T01:48:46;14.30;;;8.05;;
68178;SDS011;69812;42.632;23.440;2023-05-07T01:51:12;15.07;;;8.25;;
68178;SDS011;69812;42.632;23.440;2023-05-07T01:53:38;15.73;;;9.05;;
68178;SDS011;69812;42.632;23.440;2023-05-07T01:56:05;16.08;;;8.73;;
68178;SDS011;69812;42.632;23.440;2023-05-07T01:58:40;17.70;;;9.88;;
68178;SDS011;69812;42.632;23.440;2023-05-07T02:01:07;16.48;;;9.15;;
68178;SDS011;69812;42.632;23.440;2023-05-07T02:03:32;14.45;;;8.50;;
68178;SDS011;69812;42.632;23.440;2023-05-07T02:06:41;16.63;;;8.82;;
68178;SDS011;69812;42.632;23.440;2023-05-07T02:09:09;14.85;;;8.48;;
68178;SDS011;69812;42.632;23.440;2023-05-07T02:11:34;16.90;;;8.85;;
68178;SDS011;69812;42.632;23.440;2023-05-07T02:14:00;15.70;;;9.43;;
68178;SDS011;69812;42.632;23.440;2023-05-07T02:16:25;15.00;;;8.82;;
68178;SDS011;69812;42.632;23.440;2023-05-07T02:19:06;17.63;;;8.70;;
68178;SDS011;69812;42.632;23.440;2023-05-07T02:21:34;13.05;;;8.13;;
68178;SDS011;69812;42.632;23.440;2023-05-07T02:24:01;15.50;;;8.98;;
68178;SDS011;69812;42.632;23.440;2023-05-07T02:26:27;16.25;;;9.52;;
68178;SDS011;69812;42.632;23.440;2023-05-07T02:28:52;16.02;;;8.88;;
68178;SDS011;69812;42.632;23.440;2023-05-07T02:34:08;16.98;;;8.73;;
68178;SDS011;69812;42.632;23.440;2023-05-07T02:36:34;14.25;;;8.40;;
68178;SDS011;69812;42.632;23.440;2023-05-07T02:39:00;17.77;;;8.93;;
68178;SDS011;69812;42.632;23.440;2023-05-07T02:41:25;13.88;;;8.48;;
68178;SDS011;69812;42.632;23.440;2023-05-07T02:43:53;13.45;;;8.63;;
68178;SDS011;69812;42.632;23.440;2023-05-07T02:46:18;16.08;;;8.20;;
68178;SDS011;69812;42.632;23.440;2023-05-07T02:51:31;17.60;;;7.93;;
68178;SDS011;69812;42.632;23.440;2023-05-07T02:53:58;15.32;;;8.35;;
68178;SDS011;69812;42.632;23.440;2023-05-07T02:56:26;15.07;;;8.43;;
68178;SDS011;69812;42.632;23.440;2023-05-07T02:58:52;14.80;;;8.73;;
68178;SDS011;69812;42.632;23.440;2023-05-07T03:01:17;13.00;;;8.27;;
68178;SDS011;69812;42.632;23.440;2023-05-07T03:03:42;13.82;;;8.73;;
68178;SDS011;69812;42.632;23.440;2023-05-07T03:06:09;14.73;;;8.93;;
68178;SDS011;69812;42.632;23.440;2023-05-07T03:08:34;15.43;;;8.25;;
68178;SDS011;69812;42.632;23.440;2023-05-07T03:11:00;14.30;;;8.63;;
68178;SDS011;69812;42.632;23.440;2023-05-07T03:13:31;13.98;;;7.95;;
68178;SDS011;69812;42.632;23.440;2023-05-07T03:15:58;12.75;;;7.82;;
68178;SDS011;69812;42.632;23.440;2023-05-07T03:18:24;15.65;;;8.52;;
68178;SDS011;69812;42.632;23.440;2023-05-07T03:20:49;15.90;;;7.93;;
68178;SDS011;69812;42.632;23.440;2023-05-07T03:23:14;14.00;;;8.52;;
68178;SDS011;69812;42.632;23.440;2023-05-07T03:25:58;14.55;;;8.25;;
68178;SDS011;69812;42.632;23.440;2023-05-07T03:28:26;15.00;;;8.32;;
68178;SDS011;69812;42.632;23.440;2023-05-07T03:30:54;17.90;;;8.38;;
68178;SDS011;69812;42.632;23.440;2023-05-07T03:33:19;16.40;;;8.25;;
68178;SDS011;69812;42.632;23.440;2023-05-07T03:35:45;18.95;;;9.02;;
68178;SDS011;69812;42.632;23.440;2023-05-07T03:38:10;15.50;;;8.57;;
68178;SDS011;69812;42.632;23.440;2023-05-07T03:40:41;17.08;;;9.00;;
68178;SDS011;69812;42.632;23.440;2023-05-07T03:43:06;15.68;;;8.45;;
68178;SDS011;69812;42.632;23.440;2023-05-07T03:45:52;15.25;;;8.68;;
68178;SDS011;69812;42.632;23.440;2023-05-07T03:48:18;16.45;;;9.18;;
68178;SDS011;69812;42.632;23.440;2023-05-07T03:50:44;15.82;;;9.43;;
68178;SDS011;69812;42.632;23.440;2023-05-07T03:53:12;15.43;;;9.30;;
68178;SDS011;69812;42.632;23.440;2023-05-07T03:55:40;16.23;;;9.90;;
68178;SDS011;69812;42.632;23.440;2023-05-07T03:58:08;18.45;;;10.30;;
68178;SDS011;69812;42.632;23.440;2023-05-07T04:00:35;18.73;;;9.45;;
68178;SDS011;69812;42.632;23.440;2023-05-07T04:03:15;12.73;;;7.88;;
68178;SDS011;69812;42.632;23.440;2023-05-07T04:05:42;12.20;;;7.28;;
68178;SDS011;69812;42.632;23.440;2023-05-07T04:08:07;11.13;;;7.68;;
68178;SDS011;69812;42.632;23.440;2023-05-07T04:10:33;12.30;;;7.78;;
68178;SDS011;69812;42.632;23.440;2023-05-07T04:12:58;11.93;;;8.07;;
68178;SDS011;69812;42.632;23.440;2023-05-07T04:15:23;11.20;;;7.68;;
68178;SDS011;69812;42.632;23.440;2023-05-07T09:30:18;5.80;;;3.58;;
68178;SDS011;69812;42.632;23.440;2023-05-07T09:32:43;6.45;;;3.80;;
68178;SDS011;69812;42.632;23.440;2023-05-07T09:35:15;5.88;;;4.15;;
68178;SDS011;69812;42.632;23.440;2023-05-07T09:37:49;7.43;;;3.42;;
68178;SDS011;69812;42.632;23.440;2023-05-07T09:40:22;5.45;;;3.38;;
68178;SDS011;69812;42.632;23.440;2023-05-07T09:42:49;5.63;;;3.40;;
68178;SDS011;69812;42.632;23.440;2023-05-07T09:45:36;6.18;;;3.70;;
68178;SDS011;69812;42.632;23.440;2023-05-07T09:48:01;6.68;;;4.10;;
68178;SDS011;69812;42.632;23.440;2023-05-07T09:50:35;5.05;;;3.75;;
68178;SDS011;69812;42.632;23.440;2023-05-07T09:53:04;5.38;;;3.65;;
68178;SDS011;69812;42.632;23.440;2023-05-07T09:55:32;5.82;;;3.67;;
68178;SDS011;69812;42.632;23.440;2023-05-07T09:57:58;5.07;;;3.47;;
68178;SDS011;69812;42.632;23.440;2023-05-07T10:00:27;7.05;;;3.22;;
68178;SDS011;69812;42.632;23.440;2023-05-07T10:05:22;4.45;;;3.35;;
68178;SDS011;69812;42.632;23.440;2023-05-07T10:07:48;6.40;;;3.80;;
68178;SDS011;69812;42.632;23.440;2023-05-07T10:10:16;5.22;;;3.60;;
68178;SDS011;69812;42.632;23.440;2023-05-07T10:12:42;4.75;;;3.25;;
68178;SDS011;69812;42.632;23.440;2023-05-07T10:15:09;4.63;;;3.38;;
68178;SDS011;69812;42.632;23.440;2023-05-07T10:17:36;3.47;;;2.83;;
68178;SDS011;69812;42.632;23.440;2023-05-07T10:20:06;4.47;;;2.83;;
68178;SDS011;69812;42.632;23.440;2023-05-07T10:22:41;5.53;;;2.88;;
68178;SDS011;69812;42.632;23.440;2023-05-07T10:25:30;6.32;;;3.67;;
68178;SDS011;69812;42.632;23.440;2023-05-07T10:28:04;3.83;;;3.00;;
68178;SDS011;69812;42.632;23.440;2023-05-07T10:33:33;4.80;;;3.10;;
68178;SDS011;69812;42.632;23.440;2023-05-07T10:36:00;3.95;;;2.80;;
68178;SDS011;69812;42.632;23.440;2023-05-07T10:38:28;5.07;;;3.03;;
68178;SDS011;69812;42.632;23.440;2023-05-07T10:41:14;6.72;;;3.17;;
68178;SDS011;69812;42.632;23.440;2023-05-07T10:43:42;5.75;;;3.00;;
68178;SDS011;69812;42.632;23.440;2023-05-07T10:49:24;4.53;;;2.90;;
68178;SDS011;69812;42.632;23.440;2023-05-07T10:51:33;4.07;;;2.88;;
68178;SDS011;69812;42.632;23.440;2023-05-07T10:54:18;3.13;;;2.33;;
68178;SDS011;69812;42.632;23.440;2023-05-07T10:56:57;4.28;;;2.80;;
68178;SDS011;69812;42.632;23.440;2023-05-07T11:00:01;4.15;;;3.70;;
68178;SDS011;69812;42.632;23.440;2023-05-07T11:05:24;4.80;;;3.25;;
68178;SDS011;69812;42.632;23.440;2023-05-07T11:07:56;5.43;;;3.60;;
68178;SDS011;69812;42.632;23.440;2023-05-07T11:10:22;6.18;;;3.47;;
68178;SDS011;69812;42.632;23.440;2023-05-07T11:12:51;4.38;;;3.40;;
68178;SDS011;69812;42.632;23.440;2023-05-07T11:15:39;4.88;;;3.40;;
68178;SDS011;69812;42.632;23.440;2023-05-07T11:18:07;6.40;;;3.75;;
68178;SDS011;69812;42.632;23.440;2023-05-07T11:26:08;6.53;;;3.72;;
68178;SDS011;69812;42.632;23.440;2023-05-07T11:28:38;5.45;;;3.80;;
68178;SDS011;69812;42.632;23.440;2023-05-07T11:31:08;5.68;;;4.10;;
68178;SDS011;69812;42.632;23.440;2023-05-07T11:33:34;4.70;;;3.80;;
68178;SDS011;69812;42.632;23.440;2023-05-07T11:36:01;7.10;;;4.07;;
68178;SDS011;69812;42.632;23.440;2023-05-07T11:38:28;5.88;;;3.85;;
68178;SDS011;69812;42.632;23.440;2023-05-07T11:43:22;5.18;;;3.90;;
68178;SDS011;69812;42.632;23.440;2023-05-07T11:45:47;6.53;;;4.25;;
68178;SDS011;69812;42.632;23.440;2023-05-07T11:50:53;5.20;;;4.35;;
68178;SDS011;69812;42.632;23.440;2023-05-07T11:53:19;5.93;;;4.07;;
68178;SDS011;69812;42.632;23.440;2023-05-07T11:55:46;4.88;;;4.07;;
68178;SDS011;69812;42.632;23.440;2023-05-07T11:58:12;6.03;;;4.43;;
68178;SDS011;69812;42.632;23.440;2023-05-07T12:01:03;7.90;;;5.13;;
68178;SDS011;69812;42.632;23.440;2023-05-07T12:03:31;5.70;;;4.82;;
68178;SDS011;69812;42.632;23.440;2023-05-07T12:05:57;6.03;;;4.30;;
68178;SDS011;69812;42.632;23.440;2023-05-07T12:08:22;8.05;;;4.50;;
68178;SDS011;69812;42.632;23.440;2023-05-07T12:10:48;5.15;;;4.65;;
68178;SDS011;69812;42.632;23.440;2023-05-07T12:13:27;7.65;;;4.78;;
68178;SDS011;69812;42.632;23.440;2023-05-07T12:15:53;5.43;;;4.05;;
68178;SDS011;69812;42.632;23.440;2023-05-07T12:18:21;4.93;;;3.90;;
68178;SDS011;69812;42.632;23.440;2023-05-07T12:23:15;5.63;;;4.65;;
68178;SDS011;69812;42.632;23.440;2023-05-07T12:25:42;6.55;;;4.97;;
68178;SDS011;69812;42.632;23.440;2023-05-07T12:28:15;24.33;;;12.10;;
68178;SDS011;69812;42.632;23.440;2023-05-07T12:30:48;7.90;;;5.90;;
68178;SDS011;69812;42.632;23.440;2023-05-07T12:33:19;5.80;;;4.50;;
68178;SDS011;69812;42.632;23.440;2023-05-07T12:35:48;5.40;;;4.25;;
68178;SDS011;69812;42.632;23.440;2023-05-07T12:38:16;6.45;;;4.85;;
68178;SDS011;69812;42.632;23.440;2023-05-07T12:41:00;7.15;;;4.60;;
68178;SDS011;69812;42.632;23.440;2023-05-07T12:43:26;7.63;;;5.60;;
68178;SDS011;69812;42.632;23.440;2023-05-07T12:45:55;6.40;;;4.65;;
68178;SDS011;69812;42.632;23.440;2023-05-07T12:48:22;7.63;;;4.80;;
68178;SDS011;69812;42.632;23.440;2023-05-07T12:50:49;8.70;;;5.00;;
68178;SDS011;69812;42.632;23.440;2023-05-07T12:55:50;7.63;;;5.35;;
68178;SDS011;69812;42.632;23.440;2023-05-07T12:58:36;15.65;;;9.73;;
68178;SDS011;69812;42.632;23.440;2023-05-07T13:01:05;5.53;;;4.88;;
68178;SDS011;69812;42.632;23.440;2023-05-07T13:03:32;7.65;;;4.45;;
68178;SDS011;69812;42.632;23.440;2023-05-07T13:06:03;5.47;;;4.75;;
68178;SDS011;69812;42.632;23.440;2023-05-07T13:08:33;5.85;;;4.28;;
68178;SDS011;69812;42.632;23.440;2023-05-07T13:11:06;4.72;;;4.13;;
68178;SDS011;69812;42.632;23.440;2023-05-07T13:13:35;6.25;;;4.63;;
68178;SDS011;69812;42.632;23.440;2023-05-07T13:16:02;5.35;;;4.25;;
68178;SDS011;69812;42.632;23.440;2023-05-07T13:18:38;5.78;;;4.32;;
68178;SDS011;69812;42.632;23.440;2023-05-07T13:21:22;5.55;;;4.32;;
68178;SDS011;69812;42.632;23.440;2023-05-07T13:23:47;6.90;;;5.63;;
68178;SDS011;69812;42.632;23.440;2023-05-07T13:26:13;5.85;;;4.60;;
68178;SDS011;69812;42.632;23.440;2023-05-07T13:28:38;5.43;;;4.20;;
68178;SDS011;69812;42.632;23.440;2023-05-07T13:31:09;6.13;;;4.60;;
68178;SDS011;69812;42.632;23.440;2023-05-07T13:33:37;4.63;;;4.07;;
68178;SDS011;69812;42.632;23.440;2023-05-07T13:36:03;7.45;;;4.18;;
68178;SDS011;69812;42.632;23.440;2023-05-07T13:38:31;5.25;;;4.60;;
68178;SDS011;69812;42.632;23.440;2023-05-07T13:40:56;6.60;;;4.43;;
68178;SDS011;69812;42.632;23.440;2023-05-07T13:43:22;5.43;;;4.50;;
68178;SDS011;69812;42.632;23.440;2023-05-07T13:45:48;4.65;;;4.15;;
68178;SDS011;69812;42.632;23.440;2023-05-07T13:48:15;5.88;;;4.35;;
68178;SDS011;69812;42.632;23.440;2023-05-07T13:50:43;6.70;;;4.55;;
68178;SDS011;69812;42.632;23.440;2023-05-07T13:53:09;5.07;;;3.92;;
68178;SDS011;69812;42.632;23.440;2023-05-07T13:55:34;4.60;;;3.38;;
68178;SDS011;69812;42.632;23.440;2023-05-07T13:58:06;4.65;;;3.80;;
68178;SDS011;69812;42.632;23.440;2023-05-07T14:00:31;4.15;;;3.38;;
68178;SDS011;69812;42.632;23.440;2023-05-07T14:02:57;4.70;;;3.30;;
68178;SDS011;69812;42.632;23.440;2023-05-07T14:05:22;5.97;;;3.97;;
68178;SDS011;69812;42.632;23.440;2023-05-07T14:10:33;4.20;;;3.70;;
68178;SDS011;69812;42.632;23.440;2023-05-07T14:12:59;5.38;;;3.78;;
68178;SDS011;69812;42.632;23.440;2023-05-07T14:15:27;4.82;;;3.85;;
68178;SDS011;69812;42.632;23.440;2023-05-07T14:17:52;5.55;;;3.78;;
68178;SDS011;69812;42.632;23.440;2023-05-07T14:20:18;8.27;;;3.67;;
68178;SDS011;69812;42.632;23.440;2023-05-07T14:22:45;4.32;;;3.40;;
68178;SDS011;69812;42.632;23.440;2023-05-07T14:25:11;5.85;;;3.47;;
68178;SDS011;69812;42.632;23.440;2023-05-07T14:27:36;5.53;;;3.47;;
68178;SDS011;69812;42.632;23.440;2023-05-07T14:30:02;4.35;;;3.50;;
68178;SDS011;69812;42.632;23.440;2023-05-07T14:32:27;3.58;;;3.13;;
68178;SDS011;69812;42.632;23.440;2023-05-07T14:34:52;5.45;;;3.33;;
68178;SDS011;69812;42.632;23.440;2023-05-07T14:37:18;4.72;;;3.25;;
68178;SDS011;69812;42.632;23.440;2023-05-07T14:39:46;4.07;;;2.70;;
68178;SDS011;69812;42.632;23.440;2023-05-07T14:42:11;5.15;;;2.92;;
68178;SDS011;69812;42.632;23.440;2023-05-07T14:44:37;3.83;;;2.65;;
68178;SDS011;69812;42.632;23.440;2023-05-07T14:47:05;6.15;;;2.90;;
68178;SDS011;69812;42.632;23.440;2023-05-07T14:49:31;3.97;;;3.00;;
68178;SDS011;69812;42.632;23.440;2023-05-07T14:52:11;3.95;;;2.92;;
68178;SDS011;69812;42.632;23.440;2023-05-07T14:54:39;3.97;;;3.17;;
68178;SDS011;69812;42.632;23.440;2023-05-07T14:57:08;4.70;;;2.95;;
68178;SDS011;69812;42.632;23.440;2023-05-07T14:59:35;4.63;;;2.78;;
68178;SDS011;69812;42.632;23.440;2023-05-07T15:02:00;4.82;;;2.80;;
68178;SDS011;69812;42.632;23.440;2023-05-07T15:04:26;4.55;;;3.13;;
68178;SDS011;69812;42.632;23.440;2023-05-07T15:06:51;6.65;;;3.20;;
68178;SDS011;69812;42.632;23.440;2023-05-07T15:09:18;5.80;;;3.38;;
68178;SDS011;69812;42.632;23.440;2023-05-07T15:11:44;4.43;;;3.40;;
68178;SDS011;69812;42.632;23.440;2023-05-07T15:14:09;5.28;;;3.20;;
68178;SDS011;69812;42.632;23.440;2023-05-07T15:16:50;4.60;;;3.28;;
68178;SDS011;69812;42.632;23.440;2023-05-07T15:19:18;6.47;;;2.72;;
68178;SDS011;69812;42.632;23.440;2023-05-07T15:21:44;4.68;;;2.85;;
68178;SDS011;69812;42.632;23.440;2023-05-07T15:24:09;4.85;;;3.30;;
68178;SDS011;69812;42.632;23.440;2023-05-07T15:26:37;3.60;;;2.72;;
68178;SDS011;69812;42.632;23.440;2023-05-07T15:29:02;5.82;;;3.28;;
68178;SDS011;69812;42.632;23.440;2023-05-07T15:31:38;5.63;;;3.30;;
68178;SDS011;69812;42.632;23.440;2023-05-07T15:34:06;4.55;;;3.13;;
68178;SDS011;69812;42.632;23.440;2023-05-07T15:36:32;3.67;;;3.00;;
68178;SDS011;69812;42.632;23.440;2023-05-07T15:38:57;3.90;;;3.22;;
68178;SDS011;69812;42.632;23.440;2023-05-07T15:41:24;5.07;;;3.15;;
68178;SDS011;69812;42.632;23.440;2023-05-07T15:43:55;5.07;;;3.15;;
